createdAt,value
2022-12-08T00:00:17.103Z,9.73
2022-12-08T00:03:11.487Z,10.23
2022-12-08T00:06:00.334Z,9.98
2022-12-08T00:08:44.793Z,10.00
2022-12-08T00:11:19.055Z,10.05
2022-12-08T00:13:51.470Z,9.20
2022-12-08T00:16:26.566Z,10.07
2022-12-08T00:18:59.023Z,10.10
2022-12-08T00:21:32.200Z,10.45
2022-12-08T00:24:04.687Z,10.32
2022-12-08T00:26:37.012Z,10.65
2022-12-08T00:29:14.491Z,11.07
2022-12-08T00:31:52.293Z,10.82
2022-12-08T00:34:24.702Z,10.40
2022-12-08T00:36:56.702Z,11.40
2022-12-08T00:39:28.982Z,10.70
2022-12-08T00:42:16.282Z,10.20
2022-12-08T00:44:49.041Z,10.48
2022-12-08T00:47:25.113Z,10.88
2022-12-08T00:49:57.314Z,10.80
2022-12-08T00:52:29.109Z,11.07
2022-12-08T00:55:00.790Z,10.73
2022-12-08T00:57:35.837Z,10.13
2022-12-08T01:00:15.160Z,11.30
2022-12-08T01:02:50.767Z,11.23
2022-12-08T01:05:23.997Z,11.57
2022-12-08T01:07:55.780Z,12.02
2022-12-08T01:10:27.977Z,12.70
2022-12-08T01:12:59.640Z,12.20
2022-12-08T01:15:31.726Z,12.77
2022-12-08T01:18:08.667Z,13.32
2022-12-08T01:20:40.757Z,12.63
2022-12-08T01:23:12.199Z,12.98
2022-12-08T01:25:44.755Z,11.90
2022-12-08T01:28:16.504Z,11.68
2022-12-08T01:30:51.547Z,11.50
2022-12-08T01:33:26.402Z,10.48
2022-12-08T01:35:58.696Z,11.73
2022-12-08T01:38:30.161Z,11.18
2022-12-08T01:41:02.858Z,11.68
2022-12-08T01:44:00.689Z,11.52
2022-12-08T01:46:35.572Z,12.05
2022-12-08T01:49:15.813Z,11.85
2022-12-08T01:51:55.707Z,12.32
2022-12-08T01:54:31.596Z,10.95
2022-12-08T01:57:07.069Z,12.35
2022-12-08T01:59:43.105Z,11.95
2022-12-08T02:02:15.814Z,11.93
2022-12-08T02:04:50.355Z,12.25
2022-12-08T02:07:25.679Z,10.95
2022-12-08T02:09:58.649Z,10.98
2022-12-08T02:12:30.787Z,11.25
2022-12-08T02:15:05.334Z,11.98
2022-12-08T02:17:56.349Z,11.60
2022-12-08T02:20:46.385Z,11.75
2022-12-08T02:23:30.309Z,11.77
2022-12-08T02:26:48.771Z,11.60
2022-12-08T02:30:12.138Z,11.32
2022-12-08T02:33:14.333Z,11.18
2022-12-08T02:35:59.402Z,10.70
2022-12-08T02:38:48.082Z,10.38
2022-12-08T02:41:33.877Z,10.75
2022-12-08T02:44:14.710Z,9.77
2022-12-08T02:47:02.296Z,11.07
2022-12-08T02:49:37.039Z,9.85
2022-12-08T02:52:45.730Z,10.07
2022-12-08T02:55:41.176Z,10.25
2022-12-08T02:58:46.440Z,9.73
2022-12-08T03:01:36.187Z,9.00
2022-12-08T03:04:17.293Z,9.50
2022-12-08T03:06:54.820Z,9.50
2022-12-08T03:09:38.863Z,9.57
2022-12-08T03:12:19.864Z,9.95
2022-12-08T03:14:57.783Z,8.90
2022-12-08T03:17:34.416Z,9.63
2022-12-08T03:20:12.480Z,8.90
2022-12-08T03:22:47.464Z,8.82
2022-12-08T03:25:26.297Z,8.90
2022-12-08T03:27:58.442Z,7.75
2022-12-08T03:30:34.311Z,8.93
2022-12-08T03:33:12.405Z,8.73
2022-12-08T03:35:46.115Z,8.10
2022-12-08T03:38:23.700Z,9.13
2022-12-08T03:41:10.658Z,8.43
2022-12-08T03:43:42.317Z,8.82
2022-12-08T03:46:14.143Z,10.13
2022-12-08T03:48:46.949Z,9.43
2022-12-08T03:51:19.162Z,9.85
2022-12-08T03:53:51.140Z,8.35
2022-12-08T03:56:28.269Z,10.55
2022-12-08T03:59:00.066Z,10.57
2022-12-08T04:01:33.645Z,11.38
2022-12-08T04:04:06.915Z,10.63
2022-12-08T04:06:38.693Z,11.75
2022-12-08T04:09:10.299Z,12.93
2022-12-08T04:11:44.896Z,13.48
2022-12-08T04:14:17.115Z,13.82
2022-12-08T04:16:49.019Z,14.10
2022-12-08T04:19:20.590Z,14.73
2022-12-08T04:21:55.329Z,14.98
2022-12-08T04:24:26.682Z,15.25
2022-12-08T04:27:01.212Z,15.27
2022-12-08T04:29:32.750Z,15.60
2022-12-08T04:32:04.838Z,15.13
2022-12-08T04:34:37.344Z,14.95
2022-12-08T04:37:12.047Z,15.75
2022-12-08T04:39:43.515Z,15.82
2022-12-08T04:42:18.521Z,15.85
2022-12-08T04:44:50.047Z,15.25
2022-12-08T04:47:22.623Z,16.08
2022-12-08T04:49:54.274Z,16.15
2022-12-08T04:52:26.101Z,16.45
2022-12-08T04:54:57.388Z,16.48
2022-12-08T04:57:32.286Z,17.13
2022-12-08T05:00:04.131Z,17.58
2022-12-08T05:02:38.311Z,18.10
2022-12-08T05:05:11.683Z,17.58
2022-12-08T05:07:46.528Z,17.58
2022-12-08T05:10:18.179Z,17.85
2022-12-08T05:12:52.732Z,19.02
2022-12-08T05:15:24.480Z,19.50
2022-12-08T05:17:56.411Z,19.30
2022-12-08T05:20:27.762Z,18.42
2022-12-08T05:22:59.246Z,17.95
2022-12-08T05:25:33.159Z,19.10
2022-12-08T05:28:39.621Z,19.00
2022-12-08T05:31:01.586Z,20.13
2022-12-08T05:33:34.092Z,18.60
2022-12-08T05:36:06.085Z,19.92
2022-12-08T05:38:38.039Z,18.85
2022-12-08T05:41:12.385Z,20.20
2022-12-08T05:43:47.658Z,20.80
2022-12-08T05:46:20.146Z,21.73
2022-12-08T05:48:51.917Z,20.90
2022-12-08T05:51:30.907Z,21.48
2022-12-08T05:54:03.072Z,20.10
2022-12-08T05:56:36.914Z,21.27
2022-12-08T05:59:12.215Z,19.55
2022-12-08T06:01:43.882Z,20.98
2022-12-08T06:04:15.754Z,19.33
2022-12-08T06:06:47.225Z,19.95
2022-12-08T06:09:20.691Z,20.77
2022-12-08T06:11:54.869Z,21.58
2022-12-08T06:14:29.621Z,20.95
2022-12-08T06:17:01.372Z,21.20
2022-12-08T06:19:33.590Z,22.60
2022-12-08T06:22:05.381Z,21.75
2022-12-08T06:24:38.235Z,21.35
2022-12-08T06:27:10.016Z,21.08
2022-12-08T06:29:44.889Z,22.00
2022-12-08T06:32:17.138Z,21.38
2022-12-08T06:34:49.689Z,21.50
2022-12-08T06:37:22.538Z,20.73
2022-12-08T06:39:55.173Z,19.83
2022-12-08T06:42:54.918Z,20.20
2022-12-08T06:45:30.325Z,20.17
2022-12-08T06:48:04.231Z,21.15
2022-12-08T06:50:36.811Z,19.67
2022-12-08T06:53:08.970Z,20.60
2022-12-08T06:55:58.319Z,21.50
2022-12-08T06:58:31.338Z,21.08
2022-12-08T07:01:11.483Z,20.10
2022-12-08T07:03:44.816Z,21.50
2022-12-08T07:06:19.964Z,21.33
2022-12-08T07:08:51.493Z,20.55
2022-12-08T07:11:23.424Z,20.70
2022-12-08T07:13:55.402Z,21.65
2022-12-08T07:16:29.878Z,22.60
2022-12-08T07:19:10.129Z,21.92
2022-12-08T07:21:42.514Z,22.08
2022-12-08T07:24:14.623Z,21.95
2022-12-08T07:26:46.631Z,22.42
2022-12-08T07:29:23.047Z,20.10
2022-12-08T07:32:00.273Z,21.15
2022-12-08T07:34:31.864Z,19.45
2022-12-08T07:37:03.778Z,20.63
2022-12-08T07:39:38.408Z,19.38
2022-12-08T07:42:10.038Z,19.95
2022-12-08T07:44:41.757Z,19.10
2022-12-08T07:47:16.487Z,20.63
2022-12-08T07:49:48.405Z,21.02
2022-12-08T07:52:20.890Z,18.52
2022-12-08T07:54:52.486Z,19.88
2022-12-08T07:57:24.547Z,19.48
2022-12-08T08:00:00.405Z,19.48
2022-12-08T08:02:35.159Z,19.73
2022-12-08T08:05:10.893Z,18.27
2022-12-08T08:07:45.735Z,20.02
2022-12-08T08:10:19.921Z,19.75
2022-12-08T08:12:54.502Z,20.27
2022-12-08T08:15:28.741Z,18.73
2022-12-08T08:18:03.901Z,18.85
2022-12-08T08:20:37.317Z,17.90
2022-12-08T08:23:08.871Z,18.33
2022-12-08T08:25:40.859Z,18.33
2022-12-08T08:28:12.895Z,17.63
2022-12-08T08:30:44.541Z,17.95
2022-12-08T08:33:18.836Z,17.48
2022-12-08T08:35:50.152Z,18.80
2022-12-08T08:38:21.738Z,18.65
2022-12-08T08:40:53.421Z,18.60
2022-12-08T08:43:38.103Z,17.48
2022-12-08T08:46:12.010Z,19.17
2022-12-08T08:48:48.778Z,18.02
2022-12-08T08:51:21.463Z,17.73
2022-12-08T08:53:53.171Z,17.92
2022-12-08T08:56:24.511Z,17.63
2022-12-08T08:59:26.344Z,17.50
2022-12-08T09:01:59.290Z,17.00
2022-12-08T09:04:34.632Z,17.98
2022-12-08T09:07:07.103Z,15.60
2022-12-08T09:09:39.977Z,17.00
2022-12-08T09:12:16.376Z,16.48
2022-12-08T09:14:49.497Z,15.88
2022-12-08T09:17:21.864Z,15.85
2022-12-08T09:19:57.221Z,16.42
2022-12-08T09:22:29.576Z,17.40
2022-12-08T09:25:02.376Z,17.02
2022-12-08T09:27:35.255Z,18.45
2022-12-08T09:30:09.179Z,16.98
2022-12-08T09:32:41.456Z,18.10
2022-12-08T09:35:16.816Z,18.00
2022-12-08T09:37:49.096Z,18.83
2022-12-08T09:40:25.575Z,18.25
2022-12-08T09:43:05.614Z,17.67
2022-12-08T09:45:39.856Z,18.35
2022-12-08T09:48:18.738Z,18.83
2022-12-08T09:50:58.229Z,18.38
2022-12-08T09:53:39.255Z,17.92
2022-12-08T09:56:18.057Z,17.80
2022-12-08T09:58:55.743Z,17.73
2022-12-08T10:01:32.931Z,18.45
2022-12-08T10:04:05.699Z,16.95
2022-12-08T10:06:45.896Z,16.98
2022-12-08T10:09:32.084Z,15.13
2022-12-08T10:12:11.735Z,16.45
2022-12-08T10:14:47.661Z,16.70
2022-12-08T10:17:25.617Z,17.48
2022-12-08T10:20:05.175Z,15.95
2022-12-08T10:22:44.768Z,16.83
2022-12-08T10:25:23.017Z,15.65
2022-12-08T10:27:58.338Z,16.88
2022-12-08T10:30:31.055Z,16.85
2022-12-08T10:33:03.697Z,14.63
2022-12-08T10:35:48.536Z,15.48
2022-12-08T10:38:26.896Z,16.35
2022-12-08T10:41:06.976Z,17.67
2022-12-08T10:43:43.061Z,16.33
2022-12-08T10:46:18.159Z,16.83
2022-12-08T10:48:56.334Z,14.70
2022-12-08T10:51:34.415Z,14.90
2022-12-08T10:54:28.099Z,15.77
2022-12-08T10:57:01.215Z,14.35
2022-12-08T10:59:37.337Z,16.02
2022-12-08T11:02:21.832Z,15.75
2022-12-08T11:05:02.655Z,15.90
2022-12-08T11:07:35.697Z,13.45
2022-12-08T11:10:22.417Z,13.38
2022-12-08T11:12:55.777Z,14.23
2022-12-08T11:15:28.655Z,14.70
2022-12-08T11:18:10.335Z,13.93
2022-12-08T11:20:45.612Z,14.90
2022-12-08T11:23:25.335Z,13.88
2022-12-08T11:26:07.897Z,14.32
2022-12-08T11:28:40.143Z,15.30
2022-12-08T11:31:31.395Z,15.60
2022-12-08T11:34:04.376Z,14.48
2022-12-08T11:36:39.055Z,14.02
2022-12-08T11:39:16.191Z,16.50
2022-12-08T11:41:52.337Z,15.75
2022-12-08T11:44:32.574Z,15.77
2022-12-08T11:47:12.136Z,20.40
2022-12-08T11:52:46.961Z,18.50
2022-12-08T11:55:37.085Z,17.85
2022-12-08T11:58:21.971Z,16.10
2022-12-08T12:00:53.566Z,17.75
2022-12-08T12:03:32.536Z,17.13
2022-12-08T12:06:53.341Z,18.80
2022-12-08T12:09:36.443Z,15.25
2022-12-08T12:12:22.169Z,16.98
2022-12-08T12:15:34.768Z,17.50
2022-12-08T12:18:16.566Z,16.13
2022-12-08T12:20:56.682Z,18.83
2022-12-08T12:23:39.594Z,16.50
2022-12-08T12:26:21.373Z,15.32
2022-12-08T12:28:56.991Z,16.88
2022-12-08T12:31:34.191Z,17.77
2022-12-08T12:34:14.932Z,16.90
2022-12-08T12:36:52.225Z,15.82
2022-12-08T12:39:26.637Z,17.83
2022-12-08T12:42:02.294Z,18.40
2022-12-08T12:44:44.177Z,17.15
2022-12-08T12:47:56.390Z,17.23
2022-12-08T12:50:51.291Z,16.55
2022-12-08T12:53:52.760Z,18.50
2022-12-08T12:56:57.322Z,16.38
2022-12-08T12:59:55.126Z,17.27
2022-12-08T13:02:33.461Z,16.08
2022-12-08T13:05:10.962Z,16.85
2022-12-08T13:07:49.706Z,16.90
2022-12-08T13:10:26.141Z,13.68
2022-12-08T13:13:10.621Z,13.82
2022-12-08T13:15:55.211Z,14.93
2022-12-08T13:18:37.396Z,15.65
2022-12-08T13:21:21.517Z,19.13
2022-12-08T13:24:18.203Z,16.73
2022-12-08T13:26:53.878Z,18.02
2022-12-08T13:29:29.643Z,17.88
2022-12-08T13:32:03.267Z,17.73
2022-12-08T13:34:48.988Z,18.77
2022-12-08T13:37:31.958Z,16.40
2022-12-08T13:40:08.963Z,17.65
2022-12-08T13:42:49.469Z,17.33
2022-12-08T13:45:59.474Z,17.40
2022-12-08T13:49:10.053Z,16.10
2022-12-08T13:57:29.647Z,15.85
2022-12-08T14:00:04.784Z,15.32
2022-12-08T14:02:46.855Z,17.83
2022-12-08T14:05:30.090Z,18.77
2022-12-08T14:08:57.133Z,18.02
2022-12-08T14:11:34.168Z,15.73
2022-12-08T14:14:09.158Z,13.73
2022-12-08T14:16:45.038Z,13.73
2022-12-08T14:19:23.373Z,14.57
2022-12-08T14:21:59.849Z,15.15
2022-12-08T14:24:35.481Z,12.38
2022-12-08T14:27:11.066Z,12.88
2022-12-08T14:29:47.566Z,13.00
2022-12-08T14:32:26.860Z,11.82
2022-12-08T14:35:03.030Z,12.70
2022-12-08T14:37:38.461Z,13.48
2022-12-08T14:40:24.453Z,13.18
2022-12-08T14:43:08.074Z,10.98
2022-12-08T14:45:52.365Z,11.05
2022-12-08T14:48:30.055Z,10.63
2022-12-08T14:51:09.268Z,11.55
2022-12-08T14:53:47.788Z,11.18
2022-12-08T14:56:27.854Z,12.30
2022-12-08T14:59:16.528Z,11.57
2022-12-08T15:01:50.738Z,11.43
2022-12-08T15:04:29.268Z,14.07
2022-12-08T15:07:10.233Z,12.15
2022-12-08T15:09:45.639Z,11.30
2022-12-08T15:12:32.321Z,12.18
2022-12-08T15:15:18.040Z,12.25
2022-12-08T15:17:54.920Z,12.25
2022-12-08T15:20:36.042Z,11.63
2022-12-08T15:23:09.763Z,12.30
2022-12-08T15:25:42.562Z,12.68
2022-12-08T15:28:26.688Z,12.60
2022-12-08T15:31:02.741Z,13.43
2022-12-08T15:33:35.562Z,12.73
2022-12-08T15:36:08.256Z,12.90
2022-12-08T15:38:41.160Z,14.20
2022-12-08T15:41:15.338Z,14.00
2022-12-08T15:43:50.221Z,13.63
2022-12-08T15:46:22.384Z,14.10
2022-12-08T15:48:58.111Z,15.30
2022-12-08T15:51:31.367Z,15.45
2022-12-08T15:54:06.373Z,14.07
2022-12-08T15:56:50.667Z,15.18
2022-12-08T15:59:34.860Z,13.77
2022-12-08T16:02:09.150Z,14.75
2022-12-08T16:07:39.600Z,15.10
2022-12-08T16:10:18.363Z,16.08
2022-12-08T16:16:01.299Z,14.93
2022-12-08T16:18:37.527Z,14.52
2022-12-08T16:21:31.218Z,13.48
2022-12-08T16:24:07.514Z,13.80
2022-12-08T16:29:32.662Z,14.13
2022-12-08T16:32:07.031Z,14.38
2022-12-08T16:34:39.063Z,13.48
2022-12-08T16:37:10.371Z,13.43
2022-12-08T16:39:45.708Z,14.15
2022-12-08T16:42:37.697Z,12.43
2022-12-08T16:45:15.952Z,12.90
2022-12-08T16:47:52.143Z,11.65
2022-12-08T16:50:26.555Z,11.45
2022-12-08T16:53:01.818Z,12.73
2022-12-08T16:55:34.765Z,12.10
2022-12-08T16:58:06.218Z,10.98
2022-12-08T17:00:39.146Z,12.50
2022-12-08T17:03:17.032Z,12.45
2022-12-08T17:05:48.812Z,13.00
2022-12-08T17:08:20.287Z,13.50
2022-12-08T17:11:07.648Z,14.90
2022-12-08T17:13:40.849Z,14.30
2022-12-08T17:16:14.199Z,15.23
2022-12-08T17:18:48.412Z,14.77
2022-12-08T17:21:21.049Z,14.98
2022-12-08T17:23:52.702Z,13.98
2022-12-08T17:26:24.348Z,14.18
2022-12-08T17:29:08.509Z,14.73
2022-12-08T17:31:40.424Z,15.43
2022-12-08T17:34:14.753Z,15.18
2022-12-08T17:36:46.791Z,16.17
2022-12-08T17:39:19.253Z,16.70
2022-12-08T17:41:51.185Z,17.10
2022-12-08T17:44:23.152Z,17.40
2022-12-08T17:46:54.706Z,17.10
2022-12-08T17:49:30.939Z,17.40
2022-12-08T17:52:04.528Z,17.60
2022-12-08T17:54:36.888Z,18.05
2022-12-08T17:57:08.522Z,17.85
2022-12-08T17:59:39.569Z,16.58
2022-12-08T18:02:13.966Z,16.85
2022-12-08T18:04:50.878Z,16.25
2022-12-08T18:07:22.675Z,17.05
2022-12-08T18:09:54.852Z,17.27
2022-12-08T18:12:26.905Z,16.83
2022-12-08T18:14:58.360Z,19.10
2022-12-08T18:17:30.269Z,17.33
2022-12-08T18:20:04.728Z,17.25
2022-12-08T18:22:36.807Z,18.10
2022-12-08T18:25:09.622Z,18.38
2022-12-08T18:27:43.298Z,18.17
2022-12-08T18:30:20.373Z,19.70
2022-12-08T18:32:57.180Z,19.00
2022-12-08T18:35:31.733Z,18.60
2022-12-08T18:38:03.483Z,18.77
2022-12-08T18:40:34.899Z,18.25
2022-12-08T18:43:06.497Z,18.75
2022-12-08T18:45:40.015Z,18.45
2022-12-08T18:48:12.059Z,18.08
2022-12-08T18:50:46.893Z,17.77
2022-12-08T18:53:18.798Z,17.08
2022-12-08T18:55:54.347Z,17.40
2022-12-08T18:58:26.328Z,17.23
2022-12-08T19:00:57.935Z,17.55
2022-12-08T19:03:29.758Z,17.58
2022-12-08T19:06:10.555Z,18.05
2022-12-08T19:08:42.633Z,19.13
2022-12-08T19:11:21.338Z,18.42
2022-12-08T19:13:53.991Z,18.38
2022-12-08T19:16:26.226Z,16.90
2022-12-08T19:18:59.462Z,18.50
2022-12-08T19:21:37.469Z,17.98
2022-12-08T19:24:12.283Z,18.02
2022-12-08T19:26:44.512Z,19.58
2022-12-08T19:29:16.927Z,18.00
2022-12-08T19:31:48.757Z,17.70
2022-12-08T19:34:20.864Z,16.63
2022-12-08T19:36:55.413Z,15.48
2022-12-08T19:39:39.760Z,16.05
2022-12-08T19:42:30.960Z,13.43
2022-12-08T19:45:06.344Z,11.65
2022-12-08T19:47:38.063Z,11.63
2022-12-08T19:50:24.686Z,10.98
2022-12-08T19:52:59.299Z,10.98
2022-12-08T19:55:31.693Z,11.73
2022-12-08T19:58:03.920Z,9.93
2022-12-08T20:00:38.693Z,11.13
2022-12-08T20:03:10.483Z,10.90
2022-12-08T20:05:43.250Z,10.55
2022-12-08T20:08:17.976Z,10.73
2022-12-08T20:10:50.106Z,11.60
2022-12-08T20:13:48.900Z,11.60
2022-12-08T20:16:20.649Z,11.82
2022-12-08T20:18:52.945Z,12.18
2022-12-08T20:21:24.976Z,11.70
2022-12-08T20:23:59.726Z,12.00
2022-12-08T20:26:31.747Z,11.32
2022-12-08T20:29:03.111Z,12.98
2022-12-08T20:31:36.047Z,12.50
2022-12-08T20:34:07.807Z,13.00
2022-12-08T20:36:39.421Z,12.57
2022-12-08T20:39:16.505Z,12.48
2022-12-08T20:41:49.558Z,12.50
2022-12-08T20:44:20.952Z,12.68
2022-12-08T20:46:52.771Z,12.32
2022-12-08T20:49:26.325Z,13.30
2022-12-08T20:52:01.704Z,13.35
2022-12-08T20:54:35.991Z,13.82
2022-12-08T20:57:07.825Z,13.63
2022-12-08T20:59:39.474Z,14.50
2022-12-08T21:02:14.179Z,15.27
2022-12-08T21:04:46.373Z,15.88
2022-12-08T21:07:20.765Z,14.85
2022-12-08T21:09:56.023Z,15.93
2022-12-08T21:12:29.566Z,15.70
2022-12-08T21:15:01.664Z,16.27
2022-12-08T21:17:34.671Z,16.20
2022-12-08T21:20:07.751Z,16.83
2022-12-08T21:22:40.884Z,16.25
2022-12-08T21:25:15.994Z,17.98
2022-12-08T21:27:49.273Z,17.48
2022-12-08T21:30:22.798Z,20.17
2022-12-08T21:33:17.946Z,17.85
2022-12-08T21:35:51.136Z,16.38
2022-12-08T21:38:23.021Z,18.13
2022-12-08T21:40:57.654Z,17.52
2022-12-08T21:43:29.775Z,15.93
2022-12-08T21:46:01.145Z,15.75
2022-12-08T21:48:33.492Z,16.05
2022-12-08T21:51:08.661Z,15.93
2022-12-08T21:53:41.440Z,15.63
2022-12-08T21:56:18.962Z,15.98
2022-12-08T21:58:52.304Z,16.13
2022-12-08T22:01:26.820Z,16.58
2022-12-08T22:04:01.001Z,16.23
2022-12-08T22:06:38.259Z,16.52
2022-12-08T22:09:14.116Z,15.80
2022-12-08T22:11:49.864Z,16.23
2022-12-08T22:14:22.477Z,15.80
2022-12-08T22:16:58.318Z,15.73
2022-12-08T22:19:30.965Z,15.57
2022-12-08T22:22:03.149Z,16.15
2022-12-08T22:24:36.337Z,16.42
2022-12-08T22:27:17.360Z,17.35
2022-12-08T22:29:51.365Z,15.77
2022-12-08T22:32:25.936Z,16.35
2022-12-08T22:34:58.649Z,15.88
2022-12-08T22:37:32.712Z,17.08
2022-12-08T22:40:05.518Z,16.23
2022-12-08T22:42:44.084Z,16.20
2022-12-08T22:45:16.955Z,17.52
2022-12-08T22:47:51.144Z,17.33
2022-12-08T22:50:26.951Z,18.30
2022-12-08T22:52:58.810Z,17.92
2022-12-08T22:55:33.900Z,17.65
2022-12-08T22:58:11.919Z,19.13
2022-12-08T23:00:43.866Z,17.58
2022-12-08T23:03:22.653Z,19.13
2022-12-08T23:06:02.194Z,22.05
2022-12-08T23:08:38.021Z,28.85
2022-12-08T23:11:14.425Z,24.33
2022-12-08T23:13:53.292Z,21.98
2022-12-08T23:16:26.494Z,20.10
2022-12-08T23:19:02.854Z,18.33
2022-12-08T23:21:35.654Z,18.33
2022-12-08T23:24:08.667Z,24.55
2022-12-08T23:26:43.412Z,21.50
2022-12-08T23:29:20.262Z,19.73
2022-12-08T23:31:53.093Z,19.05
2022-12-08T23:34:25.785Z,18.98
2022-12-08T23:36:58.660Z,19.55
2022-12-08T23:39:31.011Z,21.40
2022-12-08T23:42:05.802Z,19.85
2022-12-08T23:44:41.480Z,18.48
2022-12-08T23:47:15.326Z,18.38
2022-12-08T23:49:52.025Z,17.58
2022-12-08T23:55:31.122Z,16.77
2022-12-08T23:58:03.152Z,18.35
